New Mine, Texas
Current Conditions -  °F | °C
As of 10:35 PM on Wednesday 26 Nov 2014 (Local Time) from KOSA Reporting Station
Clear Clear  
Wind Chill: 46°   Ceiling: Unl
Heat Index: 49°   Visibility: 10mi
Dew Point: 31°   Wind: 8mph
Humidity: 50%   Direction: 310°NW
Pressure: 30.35"   Gusts: NA
Location:  32.9352°N, 94.9553°W
Report Text: KOSA 270435Z AUTO 31007KT 10SM CLR 10/00 A3035 RMK AO1 T00961005
Loading
Personal Weather Stations






























Interactive Weather Map New forecast layout! Learn more

10-Day Weather Forecast

Advertisements
Track Severe Weather on mobile